sensor_id;sensor_type;location;lat;lon;timestamp;P1;durP1;ratioP1;P2;durP2;ratioP2
17947;SDS011;9099;47.958;11.366;2023-01-01T00:01:23;23.08;;;16.80;;
17947;SDS011;9099;47.958;11.366;2023-01-01T00:03:53;20.60;;;15.55;;
17947;SDS011;9099;47.958;11.366;2023-01-01T00:06:21;19.98;;;14.30;;
17947;SDS011;9099;47.958;11.366;2023-01-01T00:08:49;17.15;;;13.63;;
17947;SDS011;9099;47.958;11.366;2023-01-01T00:11:36;19.98;;;14.18;;
17947;SDS011;9099;47.958;11.366;2023-01-01T00:14:03;15.93;;;11.95;;
17947;SDS011;9099;47.958;11.366;2023-01-01T00:16:30;12.93;;;10.32;;
17947;SDS011;9099;47.958;11.366;2023-01-01T00:18:58;11.55;;;10.23;;
17947;SDS011;9099;47.958;11.366;2023-01-01T00:21:25;11.77;;;9.40;;
17947;SDS011;9099;47.958;11.366;2023-01-01T00:23:52;17.38;;;13.05;;
17947;SDS011;9099;47.958;11.366;2023-01-01T00:26:19;12.35;;;10.65;;
17947;SDS011;9099;47.958;11.366;2023-01-01T00:28:45;15.55;;;11.75;;
17947;SDS011;9099;47.958;11.366;2023-01-01T00:31:13;19.08;;;15.85;;
17947;SDS011;9099;47.958;11.366;2023-01-01T00:33:41;23.48;;;16.75;;
17947;SDS011;9099;47.958;11.366;2023-01-01T00:36:11;20.70;;;15.85;;
17947;SDS011;9099;47.958;11.366;2023-01-01T00:38:39;20.58;;;15.30;;
17947;SDS011;9099;47.958;11.366;2023-01-01T00:41:07;17.10;;;14.13;;
17947;SDS011;9099;47.958;11.366;2023-01-01T00:43:34;17.88;;;13.27;;
17947;SDS011;9099;47.958;11.366;2023-01-01T00:46:01;14.98;;;12.13;;
17947;SDS011;9099;47.958;11.366;2023-01-01T00:48:29;13.13;;;10.82;;
17947;SDS011;9099;47.958;11.366;2023-01-01T00:50:56;16.08;;;11.57;;
17947;SDS011;9099;47.958;11.366;2023-01-01T00:53:25;16.48;;;11.70;;
17947;SDS011;9099;47.958;11.366;2023-01-01T00:55:52;14.10;;;10.73;;
17947;SDS011;9099;47.958;11.366;2023-01-01T00:58:20;14.57;;;11.68;;
17947;SDS011;9099;47.958;11.366;2023-01-01T01:00:49;21.17;;;13.32;;
17947;SDS011;9099;47.958;11.366;2023-01-01T01:03:16;19.88;;;14.77;;
17947;SDS011;9099;47.958;11.366;2023-01-01T01:05:52;25.27;;;18.38;;
17947;SDS011;9099;47.958;11.366;2023-01-01T01:08:20;24.65;;;17.85;;
17947;SDS011;9099;47.958;11.366;2023-01-01T01:10:48;26.20;;;18.27;;
17947;SDS011;9099;47.958;11.366;2023-01-01T01:13:15;23.90;;;17.85;;
17947;SDS011;9099;47.958;11.366;2023-01-01T01:15:41;24.17;;;16.85;;
17947;SDS011;9099;47.958;11.366;2023-01-01T01:18:08;24.98;;;18.40;;
17947;SDS011;9099;47.958;11.366;2023-01-01T01:20:35;20.85;;;16.08;;
17947;SDS011;9099;47.958;11.366;2023-01-01T01:23:02;21.63;;;16.42;;
17947;SDS011;9099;47.958;11.366;2023-01-01T01:25:29;24.23;;;18.23;;
17947;SDS011;9099;47.958;11.366;2023-01-01T01:27:58;22.83;;;18.13;;
17947;SDS011;9099;47.958;11.366;2023-01-01T01:30:25;29.15;;;20.85;;
17947;SDS011;9099;47.958;11.366;2023-01-01T01:32:51;24.23;;;18.80;;
17947;SDS011;9099;47.958;11.366;2023-01-01T01:35:18;22.08;;;16.58;;
17947;SDS011;9099;47.958;11.366;2023-01-01T01:37:45;23.67;;;17.23;;
17947;SDS011;9099;47.958;11.366;2023-01-01T01:40:12;27.20;;;19.20;;
17947;SDS011;9099;47.958;11.366;2023-01-01T01:42:43;21.83;;;16.55;;
17947;SDS011;9099;47.958;11.366;2023-01-01T01:45:13;21.77;;;16.15;;
17947;SDS011;9099;47.958;11.366;2023-01-01T01:47:43;16.55;;;13.10;;
17947;SDS011;9099;47.958;11.366;2023-01-01T01:50:15;15.25;;;11.98;;
17947;SDS011;9099;47.958;11.366;2023-01-01T01:52:51;15.45;;;12.73;;
17947;SDS011;9099;47.958;11.366;2023-01-01T01:55:28;24.20;;;17.20;;
17947;SDS011;9099;47.958;11.366;2023-01-01T01:57:56;12.63;;;10.48;;
17947;SDS011;9099;47.958;11.366;2023-01-01T02:00:24;9.00;;;7.25;;
17947;SDS011;9099;47.958;11.366;2023-01-01T02:02:52;6.55;;;5.75;;
17947;SDS011;9099;47.958;11.366;2023-01-01T02:05:21;8.70;;;7.13;;
17947;SDS011;9099;47.958;11.366;2023-01-01T02:07:49;8.85;;;7.18;;
17947;SDS011;9099;47.958;11.366;2023-01-01T02:10:17;8.90;;;6.25;;
17947;SDS011;9099;47.958;11.366;2023-01-01T02:12:45;6.90;;;5.97;;
17947;SDS011;9099;47.958;11.366;2023-01-01T02:15:12;9.32;;;6.45;;
17947;SDS011;9099;47.958;11.366;2023-01-01T02:17:43;10.63;;;9.23;;
17947;SDS011;9099;47.958;11.366;2023-01-01T02:20:21;17.40;;;12.73;;
17947;SDS011;9099;47.958;11.366;2023-01-01T02:23:05;15.32;;;12.20;;
17947;SDS011;9099;47.958;11.366;2023-01-01T02:25:46;18.60;;;13.60;;
17947;SDS011;9099;47.958;11.366;2023-01-01T02:28:33;20.65;;;15.35;;
17947;SDS011;9099;47.958;11.366;2023-01-01T02:31:13;15.27;;;12.50;;
17947;SDS011;9099;47.958;11.366;2023-01-01T02:33:44;16.63;;;12.98;;
17947;SDS011;9099;47.958;11.366;2023-01-01T02:36:12;19.45;;;13.88;;
17947;SDS011;9099;47.958;11.366;2023-01-01T02:38:40;17.23;;;14.50;;
17947;SDS011;9099;47.958;11.366;2023-01-01T02:41:11;17.80;;;13.90;;
17947;SDS011;9099;47.958;11.366;2023-01-01T02:43:44;11.00;;;9.88;;
17947;SDS011;9099;47.958;11.366;2023-01-01T02:46:11;9.60;;;8.60;;
17947;SDS011;9099;47.958;11.366;2023-01-01T02:48:39;7.65;;;6.55;;
17947;SDS011;9099;47.958;11.366;2023-01-01T02:51:10;6.30;;;5.70;;
17947;SDS011;9099;47.958;11.366;2023-01-01T02:53:49;5.70;;;5.18;;
17947;SDS011;9099;47.958;11.366;2023-01-01T02:56:23;5.55;;;5.03;;
17947;SDS011;9099;47.958;11.366;2023-01-01T02:59:01;5.57;;;5.07;;
17947;SDS011;9099;47.958;11.366;2023-01-01T03:01:56;6.07;;;5.47;;
17947;SDS011;9099;47.958;11.366;2023-01-01T03:04:30;6.30;;;5.68;;
17947;SDS011;9099;47.958;11.366;2023-01-01T03:07:08;6.15;;;5.40;;
17947;SDS011;9099;47.958;11.366;2023-01-01T03:09:42;5.72;;;5.22;;
17947;SDS011;9099;47.958;11.366;2023-01-01T03:12:16;5.47;;;4.97;;
17947;SDS011;9099;47.958;11.366;2023-01-01T03:14:52;5.10;;;4.57;;
17947;SDS011;9099;47.958;11.366;2023-01-01T03:17:24;4.90;;;4.50;;
17947;SDS011;9099;47.958;11.366;2023-01-01T03:19:54;4.90;;;4.50;;
17947;SDS011;9099;47.958;11.366;2023-01-01T03:22:26;5.07;;;4.65;;
17947;SDS011;9099;47.958;11.366;2023-01-01T03:24:57;4.90;;;3.90;;
17947;SDS011;9099;47.958;11.366;2023-01-01T03:27:29;5.53;;;4.95;;
17947;SDS011;9099;47.958;11.366;2023-01-01T03:30:02;7.30;;;5.25;;
17947;SDS011;9099;47.958;11.366;2023-01-01T03:32:33;9.80;;;6.75;;
17947;SDS011;9099;47.958;11.366;2023-01-01T03:35:20;7.40;;;6.15;;
17947;SDS011;9099;47.958;11.366;2023-01-01T03:37:50;9.43;;;6.05;;
17947;SDS011;9099;47.958;11.366;2023-01-01T03:40:19;5.85;;;4.93;;
17947;SDS011;9099;47.958;11.366;2023-01-01T03:42:49;7.43;;;5.43;;
17947;SDS011;9099;47.958;11.366;2023-01-01T03:45:21;5.95;;;5.35;;
17947;SDS011;9099;47.958;11.366;2023-01-01T03:47:51;5.30;;;4.80;;
17947;SDS011;9099;47.958;11.366;2023-01-01T03:50:19;5.68;;;5.05;;
17947;SDS011;9099;47.958;11.366;2023-01-01T03:52:50;6.82;;;5.32;;
17947;SDS011;9099;47.958;11.366;2023-01-01T03:55:28;5.57;;;4.68;;
17947;SDS011;9099;47.958;11.366;2023-01-01T03:57:59;4.68;;;3.90;;
17947;SDS011;9099;47.958;11.366;2023-01-01T04:00:33;5.60;;;4.35;;
17947;SDS011;9099;47.958;11.366;2023-01-01T04:03:03;4.97;;;4.03;;
17947;SDS011;9099;47.958;11.366;2023-01-01T04:05:35;4.82;;;3.85;;
17947;SDS011;9099;47.958;11.366;2023-01-01T04:08:04;5.35;;;4.72;;
17947;SDS011;9099;47.958;11.366;2023-01-01T04:10:33;5.28;;;4.78;;
17947;SDS011;9099;47.958;11.366;2023-01-01T04:13:04;5.18;;;4.75;;
17947;SDS011;9099;47.958;11.366;2023-01-01T04:15:33;6.03;;;5.07;;
17947;SDS011;9099;47.958;11.366;2023-01-01T04:18:00;5.25;;;4.75;;
17947;SDS011;9099;47.958;11.366;2023-01-01T04:20:27;5.93;;;4.90;;
17947;SDS011;9099;47.958;11.366;2023-01-01T04:22:54;5.80;;;5.20;;
17947;SDS011;9099;47.958;11.366;2023-01-01T04:25:21;5.40;;;4.90;;
17947;SDS011;9099;47.958;11.366;2023-01-01T04:27:48;5.40;;;4.90;;
17947;SDS011;9099;47.958;11.366;2023-01-01T04:30:15;5.60;;;4.95;;
17947;SDS011;9099;47.958;11.366;2023-01-01T04:32:44;5.43;;;4.93;;
17947;SDS011;9099;47.958;11.366;2023-01-01T04:35:12;5.07;;;4.57;;
17947;SDS011;9099;47.958;11.366;2023-01-01T04:37:40;5.68;;;5.03;;
17947;SDS011;9099;47.958;11.366;2023-01-01T04:40:08;6.18;;;5.57;;
17947;SDS011;9099;47.958;11.366;2023-01-01T04:42:36;6.40;;;5.50;;
17947;SDS011;9099;47.958;11.366;2023-01-01T04:45:04;5.45;;;4.95;;
17947;SDS011;9099;47.958;11.366;2023-01-01T04:47:31;6.97;;;6.00;;
17947;SDS011;9099;47.958;11.366;2023-01-01T04:49:59;5.75;;;5.25;;
17947;SDS011;9099;47.958;11.366;2023-01-01T04:52:26;6.85;;;5.75;;
17947;SDS011;9099;47.958;11.366;2023-01-01T04:54:53;5.72;;;4.55;;
17947;SDS011;9099;47.958;11.366;2023-01-01T04:57:20;6.70;;;5.90;;
17947;SDS011;9099;47.958;11.366;2023-01-01T04:59:47;6.32;;;5.72;;
17947;SDS011;9099;47.958;11.366;2023-01-01T05:02:13;7.25;;;5.63;;
17947;SDS011;9099;47.958;11.366;2023-01-01T05:04:40;6.05;;;5.20;;
17947;SDS011;9099;47.958;11.366;2023-01-01T05:07:08;5.63;;;5.00;;
17947;SDS011;9099;47.958;11.366;2023-01-01T05:09:35;6.65;;;5.70;;
17947;SDS011;9099;47.958;11.366;2023-01-01T05:12:02;6.93;;;5.70;;
17947;SDS011;9099;47.958;11.366;2023-01-01T05:14:29;5.85;;;5.25;;
17947;SDS011;9099;47.958;11.366;2023-01-01T05:16:56;7.07;;;5.93;;
17947;SDS011;9099;47.958;11.366;2023-01-01T05:19:23;6.60;;;5.93;;
17947;SDS011;9099;47.958;11.366;2023-01-01T05:21:50;6.38;;;5.72;;
17947;SDS011;9099;47.958;11.366;2023-01-01T05:24:19;5.10;;;4.57;;
17947;SDS011;9099;47.958;11.366;2023-01-01T05:26:46;4.97;;;4.47;;
17947;SDS011;9099;47.958;11.366;2023-01-01T05:29:13;7.60;;;4.70;;
17947;SDS011;9099;47.958;11.366;2023-01-01T05:31:39;4.78;;;4.07;;
17947;SDS011;9099;47.958;11.366;2023-01-01T05:34:06;4.80;;;4.20;;
17947;SDS011;9099;47.958;11.366;2023-01-01T05:36:34;4.68;;;4.07;;
17947;SDS011;9099;47.958;11.366;2023-01-01T05:39:03;4.10;;;3.70;;
17947;SDS011;9099;47.958;11.366;2023-01-01T05:41:32;3.30;;;2.90;;
17947;SDS011;9099;47.958;11.366;2023-01-01T05:44:00;4.65;;;2.90;;
17947;SDS011;9099;47.958;11.366;2023-01-01T05:46:27;3.60;;;3.30;;
17947;SDS011;9099;47.958;11.366;2023-01-01T05:48:54;3.85;;;3.45;;
17947;SDS011;9099;47.958;11.366;2023-01-01T05:51:21;3.00;;;2.80;;
17947;SDS011;9099;47.958;11.366;2023-01-01T05:53:50;4.95;;;4.55;;
17947;SDS011;9099;47.958;11.366;2023-01-01T05:56:19;3.70;;;3.40;;
17947;SDS011;9099;47.958;11.366;2023-01-01T05:58:47;3.20;;;2.90;;
17947;SDS011;9099;47.958;11.366;2023-01-01T06:01:15;2.90;;;2.53;;
17947;SDS011;9099;47.958;11.366;2023-01-01T06:03:43;2.95;;;2.53;;
17947;SDS011;9099;47.958;11.366;2023-01-01T06:06:13;2.45;;;2.22;;
17947;SDS011;9099;47.958;11.366;2023-01-01T06:08:41;2.05;;;1.95;;
17947;SDS011;9099;47.958;11.366;2023-01-01T06:11:10;2.10;;;1.95;;
17947;SDS011;9099;47.958;11.366;2023-01-01T06:13:37;2.58;;;2.30;;
17947;SDS011;9099;47.958;11.366;2023-01-01T06:16:06;4.22;;;2.65;;
17947;SDS011;9099;47.958;11.366;2023-01-01T06:18:33;2.83;;;2.30;;
17947;SDS011;9099;47.958;11.366;2023-01-01T06:21:04;2.75;;;2.20;;
17947;SDS011;9099;47.958;11.366;2023-01-01T06:23:32;3.00;;;2.53;;
17947;SDS011;9099;47.958;11.366;2023-01-01T06:26:03;3.90;;;2.70;;
17947;SDS011;9099;47.958;11.366;2023-01-01T06:28:33;2.63;;;2.30;;
17947;SDS011;9099;47.958;11.366;2023-01-01T06:31:01;2.50;;;2.30;;
17947;SDS011;9099;47.958;11.366;2023-01-01T06:33:30;2.20;;;2.00;;
17947;SDS011;9099;47.958;11.366;2023-01-01T06:35:57;1.92;;;1.83;;
17947;SDS011;9099;47.958;11.366;2023-01-01T06:38:27;2.30;;;2.10;;
17947;SDS011;9099;47.958;11.366;2023-01-01T06:40:56;2.22;;;2.03;;
17947;SDS011;9099;47.958;11.366;2023-01-01T06:43:23;2.40;;;2.20;;
17947;SDS011;9099;47.958;11.366;2023-01-01T06:46:00;2.25;;;2.13;;
17947;SDS011;9099;47.958;11.366;2023-01-01T06:48:28;1.83;;;1.73;;
17947;SDS011;9099;47.958;11.366;2023-01-01T06:50:57;2.10;;;2.00;;
17947;SDS011;9099;47.958;11.366;2023-01-01T06:53:29;1.80;;;1.70;;
17947;SDS011;9099;47.958;11.366;2023-01-01T06:55:56;2.03;;;1.58;;
17947;SDS011;9099;47.958;11.366;2023-01-01T06:58:23;1.60;;;1.50;;
17947;SDS011;9099;47.958;11.366;2023-01-01T07:00:50;2.50;;;2.05;;
17947;SDS011;9099;47.958;11.366;2023-01-01T07:03:16;1.92;;;1.83;;
17947;SDS011;9099;47.958;11.366;2023-01-01T07:05:45;2.00;;;1.90;;
17947;SDS011;9099;47.958;11.366;2023-01-01T07:08:11;1.60;;;1.50;;
17947;SDS011;9099;47.958;11.366;2023-01-01T07:10:38;1.50;;;1.40;;
17947;SDS011;9099;47.958;11.366;2023-01-01T07:13:05;1.63;;;1.52;;
17947;SDS011;9099;47.958;11.366;2023-01-01T07:15:32;2.40;;;1.77;;
17947;SDS011;9099;47.958;11.366;2023-01-01T07:17:59;3.17;;;2.15;;
17947;SDS011;9099;47.958;11.366;2023-01-01T07:20:25;2.20;;;1.85;;
17947;SDS011;9099;47.958;11.366;2023-01-01T07:22:54;1.55;;;1.45;;
17947;SDS011;9099;47.958;11.366;2023-01-01T07:25:21;2.80;;;1.42;;
17947;SDS011;9099;47.958;11.366;2023-01-01T07:27:47;1.60;;;1.50;;
17947;SDS011;9099;47.958;11.366;2023-01-01T07:30:14;1.60;;;1.50;;
17947;SDS011;9099;47.958;11.366;2023-01-01T07:32:41;1.85;;;1.58;;
17947;SDS011;9099;47.958;11.366;2023-01-01T07:35:08;1.80;;;1.70;;
17947;SDS011;9099;47.958;11.366;2023-01-01T07:37:35;2.33;;;1.50;;
17947;SDS011;9099;47.958;11.366;2023-01-01T07:40:04;1.52;;;1.42;;
17947;SDS011;9099;47.958;11.366;2023-01-01T07:42:31;1.33;;;1.23;;
17947;SDS011;9099;47.958;11.366;2023-01-01T07:44:58;1.73;;;1.60;;
17947;SDS011;9099;47.958;11.366;2023-01-01T07:47:25;2.72;;;2.53;;
17947;SDS011;9099;47.958;11.366;2023-01-01T07:49:52;3.72;;;3.42;;
17947;SDS011;9099;47.958;11.366;2023-01-01T07:52:19;5.20;;;4.78;;
17947;SDS011;9099;47.958;11.366;2023-01-01T07:54:46;3.65;;;3.35;;
17947;SDS011;9099;47.958;11.366;2023-01-01T07:57:14;2.90;;;2.70;;
17947;SDS011;9099;47.958;11.366;2023-01-01T07:59:41;2.80;;;2.60;;
17947;SDS011;9099;47.958;11.366;2023-01-01T08:02:08;1.92;;;1.83;;
17947;SDS011;9099;47.958;11.366;2023-01-01T08:04:36;2.15;;;1.95;;
17947;SDS011;9099;47.958;11.366;2023-01-01T08:07:03;1.92;;;1.83;;
17947;SDS011;9099;47.958;11.366;2023-01-01T08:09:30;2.20;;;2.10;;
17947;SDS011;9099;47.958;11.366;2023-01-01T08:11:57;2.10;;;1.92;;
17947;SDS011;9099;47.958;11.366;2023-01-01T08:14:25;2.35;;;2.15;;
17947;SDS011;9099;47.958;11.366;2023-01-01T08:16:52;2.78;;;2.58;;
17947;SDS011;9099;47.958;11.366;2023-01-01T08:19:18;3.00;;;2.80;;
17947;SDS011;9099;47.958;11.366;2023-01-01T08:21:45;3.30;;;2.78;;
17947;SDS011;9099;47.958;11.366;2023-01-01T08:24:12;3.15;;;2.95;;
17947;SDS011;9099;47.958;11.366;2023-01-01T08:26:39;3.25;;;2.95;;
17947;SDS011;9099;47.958;11.366;2023-01-01T08:29:06;3.72;;;3.53;;
17947;SDS011;9099;47.958;11.366;2023-01-01T08:31:36;4.22;;;3.80;;
17947;SDS011;9099;47.958;11.366;2023-01-01T08:34:03;3.33;;;3.03;;
17947;SDS011;9099;47.958;11.366;2023-01-01T08:36:29;3.25;;;3.05;;
17947;SDS011;9099;47.958;11.366;2023-01-01T08:38:56;3.25;;;3.05;;
17947;SDS011;9099;47.958;11.366;2023-01-01T08:41:23;3.20;;;2.90;;
17947;SDS011;9099;47.958;11.366;2023-01-01T08:43:50;3.10;;;2.90;;
17947;SDS011;9099;47.958;11.366;2023-01-01T08:46:17;4.70;;;3.40;;
17947;SDS011;9099;47.958;11.366;2023-01-01T08:48:45;3.28;;;3.08;;
17947;SDS011;9099;47.958;11.366;2023-01-01T08:51:12;3.15;;;2.90;;
17947;SDS011;9099;47.958;11.366;2023-01-01T08:53:39;2.80;;;2.58;;
17947;SDS011;9099;47.958;11.366;2023-01-01T08:56:06;3.03;;;2.80;;
17947;SDS011;9099;47.958;11.366;2023-01-01T08:58:35;3.17;;;2.97;;
17947;SDS011;9099;47.958;11.366;2023-01-01T09:01:03;3.70;;;3.50;;
17947;SDS011;9099;47.958;11.366;2023-01-01T09:03:30;3.88;;;3.60;;
17947;SDS011;9099;47.958;11.366;2023-01-01T09:05:59;3.50;;;3.20;;
17947;SDS011;9099;47.958;11.366;2023-01-01T09:08:26;3.20;;;3.00;;
17947;SDS011;9099;47.958;11.366;2023-01-01T09:10:58;2.97;;;2.78;;
17947;SDS011;9099;47.958;11.366;2023-01-01T09:13:26;3.55;;;3.35;;
17947;SDS011;9099;47.958;11.366;2023-01-01T09:15:53;4.47;;;4.07;;
17947;SDS011;9099;47.958;11.366;2023-01-01T09:18:20;4.30;;;4.00;;
17947;SDS011;9099;47.958;11.366;2023-01-01T09:20:47;3.50;;;3.30;;
17947;SDS011;9099;47.958;11.366;2023-01-01T09:23:15;3.67;;;3.38;;
17947;SDS011;9099;47.958;11.366;2023-01-01T09:25:42;3.70;;;3.40;;
17947;SDS011;9099;47.958;11.366;2023-01-01T09:28:09;4.00;;;3.72;;
17947;SDS011;9099;47.958;11.366;2023-01-01T09:30:38;4.00;;;3.80;;
17947;SDS011;9099;47.958;11.366;2023-01-01T09:33:05;3.38;;;3.17;;
17947;SDS011;9099;47.958;11.366;2023-01-01T09:35:32;3.20;;;3.00;;
17947;SDS011;9099;47.958;11.366;2023-01-01T09:38:00;3.10;;;2.90;;
17947;SDS011;9099;47.958;11.366;2023-01-01T09:40:30;3.13;;;2.92;;
17947;SDS011;9099;47.958;11.366;2023-01-01T09:43:08;3.10;;;2.90;;
17947;SDS011;9099;47.958;11.366;2023-01-01T09:45:47;3.03;;;2.83;;
17947;SDS011;9099;47.958;11.366;2023-01-01T09:48:20;3.03;;;2.83;;
17947;SDS011;9099;47.958;11.366;2023-01-01T09:50:49;3.42;;;3.20;;
17947;SDS011;9099;47.958;11.366;2023-01-01T09:53:17;3.20;;;3.00;;
17947;SDS011;9099;47.958;11.366;2023-01-01T09:55:51;3.20;;;3.00;;
17947;SDS011;9099;47.958;11.366;2023-01-01T09:58:22;3.85;;;3.65;;
17947;SDS011;9099;47.958;11.366;2023-01-01T10:00:51;3.60;;;3.40;;
17947;SDS011;9099;47.958;11.366;2023-01-01T10:03:28;3.83;;;3.50;;
17947;SDS011;9099;47.958;11.366;2023-01-01T10:06:06;3.50;;;3.30;;
17947;SDS011;9099;47.958;11.366;2023-01-01T10:08:47;3.80;;;3.50;;
17947;SDS011;9099;47.958;11.366;2023-01-01T10:11:38;3.53;;;3.33;;
17947;SDS011;9099;47.958;11.366;2023-01-01T10:14:13;3.80;;;3.60;;
17947;SDS011;9099;47.958;11.366;2023-01-01T10:16:43;3.50;;;3.20;;
17947;SDS011;9099;47.958;11.366;2023-01-01T10:19:18;2.60;;;2.42;;
17947;SDS011;9099;47.958;11.366;2023-01-01T10:21:49;2.90;;;2.70;;
17947;SDS011;9099;47.958;11.366;2023-01-01T10:24:26;2.60;;;2.50;;
17947;SDS011;9099;47.958;11.366;2023-01-01T10:27:02;2.30;;;2.20;;
17947;SDS011;9099;47.958;11.366;2023-01-01T10:29:34;2.72;;;2.53;;
17947;SDS011;9099;47.958;11.366;2023-01-01T10:32:14;2.40;;;2.00;;
17947;SDS011;9099;47.958;11.366;2023-01-01T10:34:44;1.98;;;1.88;;
17947;SDS011;9099;47.958;11.366;2023-01-01T10:37:13;2.35;;;2.00;;
17947;SDS011;9099;47.958;11.366;2023-01-01T10:39:40;1.80;;;1.70;;
17947;SDS011;9099;47.958;11.366;2023-01-01T10:42:11;1.48;;;1.38;;
17947;SDS011;9099;47.958;11.366;2023-01-01T10:44:38;2.55;;;1.67;;
17947;SDS011;9099;47.958;11.366;2023-01-01T10:47:16;1.98;;;1.60;;
17947;SDS011;9099;47.958;11.366;2023-01-01T10:49:54;1.70;;;1.60;;
17947;SDS011;9099;47.958;11.366;2023-01-01T10:52:27;1.60;;;1.50;;
17947;SDS011;9099;47.958;11.366;2023-01-01T10:54:56;1.50;;;1.50;;
17947;SDS011;9099;47.958;11.366;2023-01-01T10:57:32;1.80;;;1.70;;
17947;SDS011;9099;47.958;11.366;2023-01-01T11:00:09;1.40;;;1.33;;
17947;SDS011;9099;47.958;11.366;2023-01-01T11:02:46;1.40;;;1.30;;
17947;SDS011;9099;47.958;11.366;2023-01-01T11:05:15;1.60;;;1.50;;
17947;SDS011;9099;47.958;11.366;2023-01-01T11:07:43;1.40;;;1.33;;
17947;SDS011;9099;47.958;11.366;2023-01-01T11:10:14;1.63;;;1.52;;
17947;SDS011;9099;47.958;11.366;2023-01-01T11:12:44;1.25;;;1.25;;
17947;SDS011;9099;47.958;11.366;2023-01-01T11:15:22;1.42;;;1.33;;
17947;SDS011;9099;47.958;11.366;2023-01-01T11:18:01;1.23;;;1.20;;
17947;SDS011;9099;47.958;11.366;2023-01-01T11:20:29;1.50;;;1.40;;
17947;SDS011;9099;47.958;11.366;2023-01-01T11:22:57;1.35;;;1.35;;
17947;SDS011;9099;47.958;11.366;2023-01-01T11:25:25;1.38;;;1.33;;
17947;SDS011;9099;47.958;11.366;2023-01-01T11:30:55;1.60;;;1.50;;
17947;SDS011;9099;47.958;11.366;2023-01-01T11:33:26;1.55;;;1.45;;
17947;SDS011;9099;47.958;11.366;2023-01-01T11:35:55;1.30;;;1.30;;
17947;SDS011;9099;47.958;11.366;2023-01-01T11:38:22;1.23;;;1.20;;
17947;SDS011;9099;47.958;11.366;2023-01-01T11:40:50;1.35;;;1.35;;
17947;SDS011;9099;47.958;11.366;2023-01-01T11:43:21;1.15;;;1.15;;
17947;SDS011;9099;47.958;11.366;2023-01-01T11:45:50;1.40;;;1.30;;
17947;SDS011;9099;47.958;11.366;2023-01-01T11:48:19;1.35;;;1.25;;
17947;SDS011;9099;47.958;11.366;2023-01-01T11:50:51;1.40;;;1.30;;
17947;SDS011;9099;47.958;11.366;2023-01-01T11:53:25;1.33;;;1.23;;
17947;SDS011;9099;47.958;11.366;2023-01-01T11:55:57;1.38;;;1.27;;
17947;SDS011;9099;47.958;11.366;2023-01-01T11:58:31;1.20;;;1.13;;
17947;SDS011;9099;47.958;11.366;2023-01-01T12:01:09;1.33;;;1.10;;
17947;SDS011;9099;47.958;11.366;2023-01-01T12:03:39;1.95;;;1.05;;
17947;SDS011;9099;47.958;11.366;2023-01-01T12:06:14;1.15;;;1.15;;
17947;SDS011;9099;47.958;11.366;2023-01-01T12:08:46;1.02;;;1.02;;
17947;SDS011;9099;47.958;11.366;2023-01-01T12:11:20;1.70;;;1.17;;
17947;SDS011;9099;47.958;11.366;2023-01-01T12:13:54;1.15;;;1.05;;
17947;SDS011;9099;47.958;11.366;2023-01-01T12:16:26;0.98;;;0.98;;
17947;SDS011;9099;47.958;11.366;2023-01-01T12:19:03;1.75;;;1.65;;
17947;SDS011;9099;47.958;11.366;2023-01-01T12:21:36;1.45;;;0.98;;
17947;SDS011;9099;47.958;11.366;2023-01-01T12:24:08;1.30;;;1.10;;
17947;SDS011;9099;47.958;11.366;2023-01-01T12:26:39;1.10;;;1.10;;
17947;SDS011;9099;47.958;11.366;2023-01-01T12:29:29;1.80;;;1.20;;
17947;SDS011;9099;47.958;11.366;2023-01-01T12:32:18;1.17;;;0.90;;
17947;SDS011;9099;47.958;11.366;2023-01-01T12:34:53;1.65;;;0.93;;
17947;SDS011;9099;47.958;11.366;2023-01-01T12:37:28;1.02;;;1.02;;
17947;SDS011;9099;47.958;11.366;2023-01-01T12:40:27;1.33;;;1.00;;
17947;SDS011;9099;47.958;11.366;2023-01-01T12:42:59;0.80;;;0.80;;
17947;SDS011;9099;47.958;11.366;2023-01-01T12:45:37;2.70;;;1.00;;
17947;SDS011;9099;47.958;11.366;2023-01-01T12:48:38;1.02;;;1.02;;
17947;SDS011;9099;47.958;11.366;2023-01-01T12:51:16;1.77;;;1.05;;
17947;SDS011;9099;47.958;11.366;2023-01-01T12:53:57;0.90;;;0.90;;
17947;SDS011;9099;47.958;11.366;2023-01-01T12:56:34;1.02;;;0.95;;
17947;SDS011;9099;47.958;11.366;2023-01-01T12:59:09;0.95;;;0.95;;
17947;SDS011;9099;47.958;11.366;2023-01-01T13:01:42;0.98;;;0.98;;
17947;SDS011;9099;47.958;11.366;2023-01-01T13:04:10;1.00;;;1.00;;
17947;SDS011;9099;47.958;11.366;2023-01-01T13:06:40;1.00;;;1.00;;
17947;SDS011;9099;47.958;11.366;2023-01-01T13:09:12;0.82;;;0.82;;
17947;SDS011;9099;47.958;11.366;2023-01-01T13:11:41;0.90;;;0.90;;
17947;SDS011;9099;47.958;11.366;2023-01-01T13:14:11;2.05;;;1.05;;
17947;SDS011;9099;47.958;11.366;2023-01-01T13:16:39;1.15;;;1.05;;
17947;SDS011;9099;47.958;11.366;2023-01-01T13:19:22;0.98;;;0.95;;
17947;SDS011;9099;47.958;11.366;2023-01-01T13:21:51;1.55;;;0.82;;
17947;SDS011;9099;47.958;11.366;2023-01-01T13:24:18;1.58;;;1.05;;
17947;SDS011;9099;47.958;11.366;2023-01-01T13:26:47;0.95;;;0.80;;
17947;SDS011;9099;47.958;11.366;2023-01-01T13:29:33;1.10;;;1.02;;
17947;SDS011;9099;47.958;11.366;2023-01-01T13:32:08;0.90;;;0.90;;
17947;SDS011;9099;47.958;11.366;2023-01-01T13:34:39;1.10;;;1.00;;
17947;SDS011;9099;47.958;11.366;2023-01-01T13:37:25;2.58;;;0.90;;
17947;SDS011;9099;47.958;11.366;2023-01-01T13:39:53;0.95;;;0.95;;
17947;SDS011;9099;47.958;11.366;2023-01-01T13:42:37;0.95;;;0.95;;
17947;SDS011;9099;47.958;11.366;2023-01-01T13:45:12;0.95;;;0.95;;
17947;SDS011;9099;47.958;11.366;2023-01-01T13:47:49;0.90;;;0.90;;
17947;SDS011;9099;47.958;11.366;2023-01-01T13:50:31;1.33;;;1.20;;
17947;SDS011;9099;47.958;11.366;2023-01-01T13:53:07;3.25;;;1.33;;
17947;SDS011;9099;47.958;11.366;2023-01-01T13:55:57;1.23;;;1.13;;
17947;SDS011;9099;47.958;11.366;2023-01-01T13:58:39;1.40;;;1.30;;
17947;SDS011;9099;47.958;11.366;2023-01-01T14:01:37;1.70;;;1.20;;
17947;SDS011;9099;47.958;11.366;2023-01-01T14:04:11;1.30;;;1.20;;
17947;SDS011;9099;47.958;11.366;2023-01-01T14:06:48;1.20;;;1.15;;
17947;SDS011;9099;47.958;11.366;2023-01-01T14:09:19;1.42;;;1.00;;
17947;SDS011;9099;47.958;11.366;2023-01-01T14:11:46;1.60;;;1.50;;
17947;SDS011;9099;47.958;11.366;2023-01-01T14:14:17;1.10;;;1.10;;
17947;SDS011;9099;47.958;11.366;2023-01-01T14:16:52;1.42;;;0.90;;
17947;SDS011;9099;47.958;11.366;2023-01-01T14:19:22;1.00;;;1.00;;
17947;SDS011;9099;47.958;11.366;2023-01-01T14:21:51;1.13;;;0.80;;
17947;SDS011;9099;47.958;11.366;2023-01-01T14:24:20;3.45;;;1.05;;
17947;SDS011;9099;47.958;11.366;2023-01-01T14:26:48;1.00;;;0.80;;
17947;SDS011;9099;47.958;11.366;2023-01-01T14:29:17;0.95;;;0.90;;
17947;SDS011;9099;47.958;11.366;2023-01-01T14:31:48;1.13;;;1.10;;
17947;SDS011;9099;47.958;11.366;2023-01-01T14:34:15;1.40;;;1.20;;
17947;SDS011;9099;47.958;11.366;2023-01-01T14:36:48;2.08;;;1.10;;
17947;SDS011;9099;47.958;11.366;2023-01-01T14:39:20;11.93;;;2.60;;
17947;SDS011;9099;47.958;11.366;2023-01-01T14:41:50;2.47;;;1.10;;
17947;SDS011;9099;47.958;11.366;2023-01-01T14:44:18;2.30;;;1.15;;
17947;SDS011;9099;47.958;11.366;2023-01-01T14:46:48;2.40;;;1.20;;
17947;SDS011;9099;47.958;11.366;2023-01-01T14:49:17;1.20;;;1.10;;
17947;SDS011;9099;47.958;11.366;2023-01-01T14:51:49;1.58;;;0.88;;
17947;SDS011;9099;47.958;11.366;2023-01-01T14:54:23;1.98;;;1.20;;
17947;SDS011;9099;47.958;11.366;2023-01-01T14:56:54;1.23;;;0.90;;
17947;SDS011;9099;47.958;11.366;2023-01-01T14:59:22;0.98;;;0.90;;
17947;SDS011;9099;47.958;11.366;2023-01-01T15:01:58;0.90;;;0.90;;
17947;SDS011;9099;47.958;11.366;2023-01-01T15:04:26;1.52;;;1.10;;
17947;SDS011;9099;47.958;11.366;2023-01-01T15:06:54;0.98;;;0.95;;